sensor_id;sensor_type;location;lat;lon;timestamp;temperature;humidity
17621;DHT22;8929;51.008;6.804;2022-12-10T00:01:59;0.90;99.90
17621;DHT22;8929;51.008;6.804;2022-12-10T00:04:25;0.90;99.90
17621;DHT22;8929;51.008;6.804;2022-12-10T00:06:50;0.90;99.90
17621;DHT22;8929;51.008;6.804;2022-12-10T00:09:16;0.90;99.90
17621;DHT22;8929;51.008;6.804;2022-12-10T00:11:42;0.90;99.90
17621;DHT22;8929;51.008;6.804;2022-12-10T00:14:08;0.90;99.90
17621;DHT22;8929;51.008;6.804;2022-12-10T00:16:34;0.80;99.90
17621;DHT22;8929;51.008;6.804;2022-12-10T00:18:59;0.80;99.90
17621;DHT22;8929;51.008;6.804;2022-12-10T00:21:28;0.80;99.90
17621;DHT22;8929;51.008;6.804;2022-12-10T00:23:54;0.70;99.90
17621;DHT22;8929;51.008;6.804;2022-12-10T00:26:21;0.80;99.90
17621;DHT22;8929;51.008;6.804;2022-12-10T00:28:47;0.80;99.90
17621;DHT22;8929;51.008;6.804;2022-12-10T00:31:13;0.80;99.90
17621;DHT22;8929;51.008;6.804;2022-12-10T00:33:39;0.80;99.90
17621;DHT22;8929;51.008;6.804;2022-12-10T00:36:24;0.70;99.90
17621;DHT22;8929;51.008;6.804;2022-12-10T00:38:50;0.70;99.90
17621;DHT22;8929;51.008;6.804;2022-12-10T00:41:16;0.70;99.90
17621;DHT22;8929;51.008;6.804;2022-12-10T00:43:41;0.70;99.90
17621;DHT22;8929;51.008;6.804;2022-12-10T00:46:07;0.60;99.90
17621;DHT22;8929;51.008;6.804;2022-12-10T00:48:34;0.70;99.90
17621;DHT22;8929;51.008;6.804;2022-12-10T00:53:25;0.60;99.90
17621;DHT22;8929;51.008;6.804;2022-12-10T00:55:51;0.60;99.90
17621;DHT22;8929;51.008;6.804;2022-12-10T00:58:17;0.60;99.90
17621;DHT22;8929;51.008;6.804;2022-12-10T01:00:42;0.60;99.90
17621;DHT22;8929;51.008;6.804;2022-12-10T01:03:08;0.50;99.90
17621;DHT22;8929;51.008;6.804;2022-12-10T01:05:33;0.50;99.90
17621;DHT22;8929;51.008;6.804;2022-12-10T01:07:58;0.50;99.90
17621;DHT22;8929;51.008;6.804;2022-12-10T01:10:24;0.40;99.90
17621;DHT22;8929;51.008;6.804;2022-12-10T01:12:49;0.40;99.90
17621;DHT22;8929;51.008;6.804;2022-12-10T01:15:15;0.40;99.90
17621;DHT22;8929;51.008;6.804;2022-12-10T01:17:40;0.40;99.90
17621;DHT22;8929;51.008;6.804;2022-12-10T01:20:06;0.40;99.90
17621;DHT22;8929;51.008;6.804;2022-12-10T01:22:32;0.40;99.90
17621;DHT22;8929;51.008;6.804;2022-12-10T01:24:57;0.30;99.90
17621;DHT22;8929;51.008;6.804;2022-12-10T01:27:22;0.30;99.90
17621;DHT22;8929;51.008;6.804;2022-12-10T01:29:48;0.30;99.90
17621;DHT22;8929;51.008;6.804;2022-12-10T01:32:13;0.20;99.90
17621;DHT22;8929;51.008;6.804;2022-12-10T01:34:39;0.20;99.90
17621;DHT22;8929;51.008;6.804;2022-12-10T01:37:04;0.30;99.90
17621;DHT22;8929;51.008;6.804;2022-12-10T01:39:30;0.20;99.90
17621;DHT22;8929;51.008;6.804;2022-12-10T01:41:56;0.20;99.90
17621;DHT22;8929;51.008;6.804;2022-12-10T01:46:49;0.20;99.90
17621;DHT22;8929;51.008;6.804;2022-12-10T01:49:19;0.10;99.90
17621;DHT22;8929;51.008;6.804;2022-12-10T01:51:45;0.10;99.90
17621;DHT22;8929;51.008;6.804;2022-12-10T01:54:16;0.10;99.90
17621;DHT22;8929;51.008;6.804;2022-12-10T01:56:42;0.20;99.90
17621;DHT22;8929;51.008;6.804;2022-12-10T01:59:08;0.20;99.90
17621;DHT22;8929;51.008;6.804;2022-12-10T02:04:17;0.10;99.90
17621;DHT22;8929;51.008;6.804;2022-12-10T02:06:46;0.20;99.90
17621;DHT22;8929;51.008;6.804;2022-12-10T02:09:28;0.20;99.90
17621;DHT22;8929;51.008;6.804;2022-12-10T02:14:29;0.20;99.90
17621;DHT22;8929;51.008;6.804;2022-12-10T02:16:57;0.20;99.90
17621;DHT22;8929;51.008;6.804;2022-12-10T02:22:08;0.30;99.90
17621;DHT22;8929;51.008;6.804;2022-12-10T02:24:34;0.30;99.90
17621;DHT22;8929;51.008;6.804;2022-12-10T02:27:06;0.30;99.90
17621;DHT22;8929;51.008;6.804;2022-12-10T02:29:35;0.40;99.90
17621;DHT22;8929;51.008;6.804;2022-12-10T02:32:06;0.50;99.90
17621;DHT22;8929;51.008;6.804;2022-12-10T02:34:34;0.50;99.90
17621;DHT22;8929;51.008;6.804;2022-12-10T02:37:02;0.60;99.90
17621;DHT22;8929;51.008;6.804;2022-12-10T02:39:31;0.70;99.90
17621;DHT22;8929;51.008;6.804;2022-12-10T02:41:58;0.80;99.90
17621;DHT22;8929;51.008;6.804;2022-12-10T02:44:25;0.90;99.90
17621;DHT22;8929;51.008;6.804;2022-12-10T02:46:53;1.10;99.90
17621;DHT22;8929;51.008;6.804;2022-12-10T02:49:19;1.10;99.90
17621;DHT22;8929;51.008;6.804;2022-12-10T02:51:46;1.20;99.90
17621;DHT22;8929;51.008;6.804;2022-12-10T02:56:58;1.30;99.90
17621;DHT22;8929;51.008;6.804;2022-12-10T02:59:38;1.40;99.90
17621;DHT22;8929;51.008;6.804;2022-12-10T03:02:11;1.50;99.90
17621;DHT22;8929;51.008;6.804;2022-12-10T03:04:47;1.50;99.90
17621;DHT22;8929;51.008;6.804;2022-12-10T03:07:25;1.50;99.90
17621;DHT22;8929;51.008;6.804;2022-12-10T03:09:53;1.60;99.90
17621;DHT22;8929;51.008;6.804;2022-12-10T03:12:31;1.60;99.90
17621;DHT22;8929;51.008;6.804;2022-12-10T03:15:03;1.60;99.90
17621;DHT22;8929;51.008;6.804;2022-12-10T03:17:29;1.70;99.90
17621;DHT22;8929;51.008;6.804;2022-12-10T03:19:56;1.70;99.90
17621;DHT22;8929;51.008;6.804;2022-12-10T03:22:22;1.80;99.90
17621;DHT22;8929;51.008;6.804;2022-12-10T03:24:48;1.80;99.90
17621;DHT22;8929;51.008;6.804;2022-12-10T03:27:14;1.80;99.90
17621;DHT22;8929;51.008;6.804;2022-12-10T03:29:42;1.80;99.90
17621;DHT22;8929;51.008;6.804;2022-12-10T03:32:09;1.90;99.90
17621;DHT22;8929;51.008;6.804;2022-12-10T03:34:36;1.90;99.90
17621;DHT22;8929;51.008;6.804;2022-12-10T03:37:02;1.90;99.90
17621;DHT22;8929;51.008;6.804;2022-12-10T03:39:28;1.90;99.90
17621;DHT22;8929;51.008;6.804;2022-12-10T03:41:53;1.90;99.90
17621;DHT22;8929;51.008;6.804;2022-12-10T03:44:29;2.00;99.90
17621;DHT22;8929;51.008;6.804;2022-12-10T03:46:55;2.00;99.90
17621;DHT22;8929;51.008;6.804;2022-12-10T03:49:20;2.00;99.90
17621;DHT22;8929;51.008;6.804;2022-12-10T03:51:46;2.10;99.90
17621;DHT22;8929;51.008;6.804;2022-12-10T03:54:11;2.10;99.90
17621;DHT22;8929;51.008;6.804;2022-12-10T03:56:37;2.10;99.90
17621;DHT22;8929;51.008;6.804;2022-12-10T03:59:03;2.10;99.90
17621;DHT22;8929;51.008;6.804;2022-12-10T04:01:28;2.10;99.90
17621;DHT22;8929;51.008;6.804;2022-12-10T04:03:53;2.10;99.90
17621;DHT22;8929;51.008;6.804;2022-12-10T04:06:19;2.20;99.90
17621;DHT22;8929;51.008;6.804;2022-12-10T04:08:45;2.10;99.90
17621;DHT22;8929;51.008;6.804;2022-12-10T04:11:11;2.10;99.90
17621;DHT22;8929;51.008;6.804;2022-12-10T04:13:37;2.20;99.90
17621;DHT22;8929;51.008;6.804;2022-12-10T04:16:22;2.10;99.90
17621;DHT22;8929;51.008;6.804;2022-12-10T04:19:01;2.20;99.90
17621;DHT22;8929;51.008;6.804;2022-12-10T04:21:28;2.20;99.90
17621;DHT22;8929;51.008;6.804;2022-12-10T04:24:13;2.20;99.90
17621;DHT22;8929;51.008;6.804;2022-12-10T04:26:57;2.10;99.90
17621;DHT22;8929;51.008;6.804;2022-12-10T04:29:27;2.10;99.90
17621;DHT22;8929;51.008;6.804;2022-12-10T04:31:53;2.10;99.90
17621;DHT22;8929;51.008;6.804;2022-12-10T04:34:19;2.10;99.90
17621;DHT22;8929;51.008;6.804;2022-12-10T04:36:44;2.00;99.90
17621;DHT22;8929;51.008;6.804;2022-12-10T04:39:10;2.00;99.90
17621;DHT22;8929;51.008;6.804;2022-12-10T04:41:42;2.00;99.90
17621;DHT22;8929;51.008;6.804;2022-12-10T04:44:08;1.90;99.90
17621;DHT22;8929;51.008;6.804;2022-12-10T04:46:33;1.90;99.90
17621;DHT22;8929;51.008;6.804;2022-12-10T04:48:59;1.90;99.90
17621;DHT22;8929;51.008;6.804;2022-12-10T04:51:24;1.90;99.90
17621;DHT22;8929;51.008;6.804;2022-12-10T04:53:50;1.90;99.90
17621;DHT22;8929;51.008;6.804;2022-12-10T04:56:15;1.90;99.90
17621;DHT22;8929;51.008;6.804;2022-12-10T04:58:41;1.90;99.90
17621;DHT22;8929;51.008;6.804;2022-12-10T05:01:07;1.90;99.90
17621;DHT22;8929;51.008;6.804;2022-12-10T05:03:33;1.90;99.90
17621;DHT22;8929;51.008;6.804;2022-12-10T05:06:06;2.00;99.90
17621;DHT22;8929;51.008;6.804;2022-12-10T05:08:33;2.00;99.90
17621;DHT22;8929;51.008;6.804;2022-12-10T05:11:06;2.00;99.90
17621;DHT22;8929;51.008;6.804;2022-12-10T05:13:32;2.00;99.90
17621;DHT22;8929;51.008;6.804;2022-12-10T05:15:57;2.00;99.90
17621;DHT22;8929;51.008;6.804;2022-12-10T05:18:23;2.00;99.90
17621;DHT22;8929;51.008;6.804;2022-12-10T05:20:48;2.00;99.90
17621;DHT22;8929;51.008;6.804;2022-12-10T05:23:14;2.00;99.90
17621;DHT22;8929;51.008;6.804;2022-12-10T05:28:23;2.00;99.90
17621;DHT22;8929;51.008;6.804;2022-12-10T05:30:48;2.00;99.90
17621;DHT22;8929;51.008;6.804;2022-12-10T05:33:14;2.00;99.90
17621;DHT22;8929;51.008;6.804;2022-12-10T05:35:39;2.10;99.90
17621;DHT22;8929;51.008;6.804;2022-12-10T05:38:05;2.10;99.90
17621;DHT22;8929;51.008;6.804;2022-12-10T05:40:34;2.10;99.90
17621;DHT22;8929;51.008;6.804;2022-12-10T05:43:00;2.10;99.90
17621;DHT22;8929;51.008;6.804;2022-12-10T05:45:25;2.10;99.90
17621;DHT22;8929;51.008;6.804;2022-12-10T05:47:51;2.10;99.90
17621;DHT22;8929;51.008;6.804;2022-12-10T05:50:16;2.10;99.90
17621;DHT22;8929;51.008;6.804;2022-12-10T05:52:42;2.10;99.90
17621;DHT22;8929;51.008;6.804;2022-12-10T05:55:07;2.10;99.90
17621;DHT22;8929;51.008;6.804;2022-12-10T05:57:33;2.10;99.90
17621;DHT22;8929;51.008;6.804;2022-12-10T05:59:58;2.10;99.90
17621;DHT22;8929;51.008;6.804;2022-12-10T06:02:24;2.10;99.90
17621;DHT22;8929;51.008;6.804;2022-12-10T06:04:49;2.10;99.90
17621;DHT22;8929;51.008;6.804;2022-12-10T06:07:15;2.10;99.90
17621;DHT22;8929;51.008;6.804;2022-12-10T06:09:40;2.10;99.90
17621;DHT22;8929;51.008;6.804;2022-12-10T06:12:06;2.10;99.90
17621;DHT22;8929;51.008;6.804;2022-12-10T06:14:31;2.10;99.90
17621;DHT22;8929;51.008;6.804;2022-12-10T06:16:57;2.10;99.90
17621;DHT22;8929;51.008;6.804;2022-12-10T06:19:22;2.10;99.90
17621;DHT22;8929;51.008;6.804;2022-12-10T06:21:48;2.00;99.90
17621;DHT22;8929;51.008;6.804;2022-12-10T06:24:13;2.00;99.90
17621;DHT22;8929;51.008;6.804;2022-12-10T06:26:39;2.00;99.90
17621;DHT22;8929;51.008;6.804;2022-12-10T06:29:04;2.00;99.90
17621;DHT22;8929;51.008;6.804;2022-12-10T06:31:29;2.00;99.90
17621;DHT22;8929;51.008;6.804;2022-12-10T06:33:55;2.00;99.90
17621;DHT22;8929;51.008;6.804;2022-12-10T06:36:21;2.00;99.90
17621;DHT22;8929;51.008;6.804;2022-12-10T06:38:46;2.00;99.90
17621;DHT22;8929;51.008;6.804;2022-12-10T06:41:16;2.00;99.90
17621;DHT22;8929;51.008;6.804;2022-12-10T06:43:41;2.00;99.90
17621;DHT22;8929;51.008;6.804;2022-12-10T06:46:08;2.00;99.90
17621;DHT22;8929;51.008;6.804;2022-12-10T06:48:34;2.00;99.90
17621;DHT22;8929;51.008;6.804;2022-12-10T06:51:00;2.00;99.90
17621;DHT22;8929;51.008;6.804;2022-12-10T06:53:25;2.00;99.90
17621;DHT22;8929;51.008;6.804;2022-12-10T06:55:50;1.90;99.90
17621;DHT22;8929;51.008;6.804;2022-12-10T06:58:16;1.70;99.90
17621;DHT22;8929;51.008;6.804;2022-12-10T07:00:41;1.70;99.90
17621;DHT22;8929;51.008;6.804;2022-12-10T07:03:07;1.70;99.90
17621;DHT22;8929;51.008;6.804;2022-12-10T07:05:32;1.70;99.90
17621;DHT22;8929;51.008;6.804;2022-12-10T07:07:58;1.70;99.90
17621;DHT22;8929;51.008;6.804;2022-12-10T07:10:23;1.70;99.90
17621;DHT22;8929;51.008;6.804;2022-12-10T07:12:49;1.70;99.90
17621;DHT22;8929;51.008;6.804;2022-12-10T07:15:14;1.70;99.90
17621;DHT22;8929;51.008;6.804;2022-12-10T07:17:40;1.70;99.90
17621;DHT22;8929;51.008;6.804;2022-12-10T07:20:06;1.70;99.90
17621;DHT22;8929;51.008;6.804;2022-12-10T07:22:31;1.70;99.90
17621;DHT22;8929;51.008;6.804;2022-12-10T07:24:57;1.70;99.90
17621;DHT22;8929;51.008;6.804;2022-12-10T07:27:22;1.60;99.90
17621;DHT22;8929;51.008;6.804;2022-12-10T07:29:48;1.40;99.90
17621;DHT22;8929;51.008;6.804;2022-12-10T07:32:13;1.30;99.90
17621;DHT22;8929;51.008;6.804;2022-12-10T07:34:38;1.30;99.90
17621;DHT22;8929;51.008;6.804;2022-12-10T07:37:04;1.30;99.90
17621;DHT22;8929;51.008;6.804;2022-12-10T07:39:29;1.40;99.90
17621;DHT22;8929;51.008;6.804;2022-12-10T07:41:55;1.40;99.90
17621;DHT22;8929;51.008;6.804;2022-12-10T07:44:21;1.40;99.90
17621;DHT22;8929;51.008;6.804;2022-12-10T07:46:48;1.50;99.90
17621;DHT22;8929;51.008;6.804;2022-12-10T07:49:14;1.50;99.90
17621;DHT22;8929;51.008;6.804;2022-12-10T07:51:42;1.40;99.90
17621;DHT22;8929;51.008;6.804;2022-12-10T07:54:08;1.40;99.90
17621;DHT22;8929;51.008;6.804;2022-12-10T07:56:34;1.30;99.90
17621;DHT22;8929;51.008;6.804;2022-12-10T07:58:59;1.40;99.90
17621;DHT22;8929;51.008;6.804;2022-12-10T08:01:25;1.40;99.90
17621;DHT22;8929;51.008;6.804;2022-12-10T08:03:51;1.50;99.90
17621;DHT22;8929;51.008;6.804;2022-12-10T08:06:18;1.60;99.90
17621;DHT22;8929;51.008;6.804;2022-12-10T08:08:44;1.60;99.90
17621;DHT22;8929;51.008;6.804;2022-12-10T08:11:10;1.70;99.90
17621;DHT22;8929;51.008;6.804;2022-12-10T08:13:36;1.70;99.90
17621;DHT22;8929;51.008;6.804;2022-12-10T08:16:06;1.70;99.90
17621;DHT22;8929;51.008;6.804;2022-12-10T08:18:32;1.80;99.90
17621;DHT22;8929;51.008;6.804;2022-12-10T08:20:58;1.80;99.90
17621;DHT22;8929;51.008;6.804;2022-12-10T08:23:23;1.80;99.90
17621;DHT22;8929;51.008;6.804;2022-12-10T08:25:49;1.80;99.90
17621;DHT22;8929;51.008;6.804;2022-12-10T08:28:14;1.80;99.90
17621;DHT22;8929;51.008;6.804;2022-12-10T08:30:44;1.80;99.90
17621;DHT22;8929;51.008;6.804;2022-12-10T08:33:10;1.80;99.90
17621;DHT22;8929;51.008;6.804;2022-12-10T08:35:35;1.80;99.90
17621;DHT22;8929;51.008;6.804;2022-12-10T08:38:01;1.90;99.90
17621;DHT22;8929;51.008;6.804;2022-12-10T08:40:26;2.00;99.90
17621;DHT22;8929;51.008;6.804;2022-12-10T08:42:52;2.00;99.90
17621;DHT22;8929;51.008;6.804;2022-12-10T08:45:17;2.00;99.90
17621;DHT22;8929;51.008;6.804;2022-12-10T08:47:43;1.90;99.90
17621;DHT22;8929;51.008;6.804;2022-12-10T08:50:08;2.00;99.90
17621;DHT22;8929;51.008;6.804;2022-12-10T08:52:34;1.90;99.90
17621;DHT22;8929;51.008;6.804;2022-12-10T08:55:00;1.90;99.90
17621;DHT22;8929;51.008;6.804;2022-12-10T08:57:25;2.00;99.90
17621;DHT22;8929;51.008;6.804;2022-12-10T08:59:50;2.00;99.90
17621;DHT22;8929;51.008;6.804;2022-12-10T09:02:16;2.10;99.90
17621;DHT22;8929;51.008;6.804;2022-12-10T09:04:41;2.10;99.90
17621;DHT22;8929;51.008;6.804;2022-12-10T09:07:07;2.00;99.90
17621;DHT22;8929;51.008;6.804;2022-12-10T09:09:33;2.10;99.90
17621;DHT22;8929;51.008;6.804;2022-12-10T09:11:58;2.20;99.90
17621;DHT22;8929;51.008;6.804;2022-12-10T09:14:24;2.20;99.90
17621;DHT22;8929;51.008;6.804;2022-12-10T09:16:49;2.20;99.90
17621;DHT22;8929;51.008;6.804;2022-12-10T09:19:15;2.20;99.90
17621;DHT22;8929;51.008;6.804;2022-12-10T09:21:40;2.30;99.90
17621;DHT22;8929;51.008;6.804;2022-12-10T09:24:06;2.40;99.90
17621;DHT22;8929;51.008;6.804;2022-12-10T09:26:31;2.40;99.90
17621;DHT22;8929;51.008;6.804;2022-12-10T09:28:57;2.40;99.90
17621;DHT22;8929;51.008;6.804;2022-12-10T09:31:23;2.60;99.90
17621;DHT22;8929;51.008;6.804;2022-12-10T09:33:49;2.50;99.90
17621;DHT22;8929;51.008;6.804;2022-12-10T09:36:15;2.60;99.90
17621;DHT22;8929;51.008;6.804;2022-12-10T09:38:41;2.60;99.90
17621;DHT22;8929;51.008;6.804;2022-12-10T09:46:39;2.70;99.90
17621;DHT22;8929;51.008;6.804;2022-12-10T09:49:17;2.80;99.90
17621;DHT22;8929;51.008;6.804;2022-12-10T09:51:45;2.80;99.90
17621;DHT22;8929;51.008;6.804;2022-12-10T09:56:43;2.80;99.90
17621;DHT22;8929;51.008;6.804;2022-12-10T09:59:15;2.80;99.90
17621;DHT22;8929;51.008;6.804;2022-12-10T10:01:42;2.70;99.90
17621;DHT22;8929;51.008;6.804;2022-12-10T10:04:08;2.80;99.90
17621;DHT22;8929;51.008;6.804;2022-12-10T10:06:34;2.80;99.90
17621;DHT22;8929;51.008;6.804;2022-12-10T10:09:00;2.90;99.90
17621;DHT22;8929;51.008;6.804;2022-12-10T10:11:28;2.90;99.90
17621;DHT22;8929;51.008;6.804;2022-12-10T10:14:13;2.90;99.90
17621;DHT22;8929;51.008;6.804;2022-12-10T10:16:43;2.90;99.90
17621;DHT22;8929;51.008;6.804;2022-12-10T10:19:43;2.90;99.90
17621;DHT22;8929;51.008;6.804;2022-12-10T10:22:04;2.90;99.90
17621;DHT22;8929;51.008;6.804;2022-12-10T10:24:34;3.00;99.90
17621;DHT22;8929;51.008;6.804;2022-12-10T10:27:01;2.90;99.90
17621;DHT22;8929;51.008;6.804;2022-12-10T10:29:35;3.00;99.90
17621;DHT22;8929;51.008;6.804;2022-12-10T10:32:20;3.00;99.90
17621;DHT22;8929;51.008;6.804;2022-12-10T10:34:46;3.10;99.90
17621;DHT22;8929;51.008;6.804;2022-12-10T10:37:59;3.20;99.90
17621;DHT22;8929;51.008;6.804;2022-12-10T10:40:05;3.20;99.90
17621;DHT22;8929;51.008;6.804;2022-12-10T10:42:38;3.30;99.90
17621;DHT22;8929;51.008;6.804;2022-12-10T10:45:05;3.30;99.90
17621;DHT22;8929;51.008;6.804;2022-12-10T10:47:32;3.30;99.90
17621;DHT22;8929;51.008;6.804;2022-12-10T10:49:58;3.20;99.90
17621;DHT22;8929;51.008;6.804;2022-12-10T10:52:27;3.20;99.90
17621;DHT22;8929;51.008;6.804;2022-12-10T10:54:53;3.30;99.90
17621;DHT22;8929;51.008;6.804;2022-12-10T10:57:36;3.30;99.90
17621;DHT22;8929;51.008;6.804;2022-12-10T11:04:56;3.40;99.90
17621;DHT22;8929;51.008;6.804;2022-12-10T11:07:38;3.30;99.90
17621;DHT22;8929;51.008;6.804;2022-12-10T11:10:14;3.30;99.90
17621;DHT22;8929;51.008;6.804;2022-12-10T11:12:41;3.20;99.90
17621;DHT22;8929;51.008;6.804;2022-12-10T11:17:52;3.20;99.90
17621;DHT22;8929;51.008;6.804;2022-12-10T11:20:25;3.10;99.90
17621;DHT22;8929;51.008;6.804;2022-12-10T11:22:56;3.10;99.90
17621;DHT22;8929;51.008;6.804;2022-12-10T11:25:27;3.10;99.90
17621;DHT22;8929;51.008;6.804;2022-12-10T11:28:00;3.20;99.90
17621;DHT22;8929;51.008;6.804;2022-12-10T11:30:27;3.30;99.90
17621;DHT22;8929;51.008;6.804;2022-12-10T11:33:18;3.20;99.90
17621;DHT22;8929;51.008;6.804;2022-12-10T11:38:44;3.20;99.90
17621;DHT22;8929;51.008;6.804;2022-12-10T11:43:44;3.40;99.90
17621;DHT22;8929;51.008;6.804;2022-12-10T11:59:04;3.40;99.90
17621;DHT22;8929;51.008;6.804;2022-12-10T12:01:49;3.50;99.90
17621;DHT22;8929;51.008;6.804;2022-12-10T12:04:20;3.50;99.90
17621;DHT22;8929;51.008;6.804;2022-12-10T12:06:57;3.60;99.90
17621;DHT22;8929;51.008;6.804;2022-12-10T12:09:35;3.70;99.90
17621;DHT22;8929;51.008;6.804;2022-12-10T12:17:16;3.90;99.90
17621;DHT22;8929;51.008;6.804;2022-12-10T12:19:45;3.90;99.90
17621;DHT22;8929;51.008;6.804;2022-12-10T12:22:16;3.80;99.90
17621;DHT22;8929;51.008;6.804;2022-12-10T12:24:43;3.80;99.90
17621;DHT22;8929;51.008;6.804;2022-12-10T12:27:23;3.90;99.90
17621;DHT22;8929;51.008;6.804;2022-12-10T12:29:59;4.00;99.90
17621;DHT22;8929;51.008;6.804;2022-12-10T12:32:27;4.10;99.90
17621;DHT22;8929;51.008;6.804;2022-12-10T12:34:56;4.10;99.90
17621;DHT22;8929;51.008;6.804;2022-12-10T12:37:26;4.10;99.90
17621;DHT22;8929;51.008;6.804;2022-12-10T12:40:13;4.20;99.90
17621;DHT22;8929;51.008;6.804;2022-12-10T12:45:39;4.30;99.90
17621;DHT22;8929;51.008;6.804;2022-12-10T12:50:50;4.30;99.90
17621;DHT22;8929;51.008;6.804;2022-12-10T12:53:17;4.30;99.90
17621;DHT22;8929;51.008;6.804;2022-12-10T13:01:19;4.30;99.90
17621;DHT22;8929;51.008;6.804;2022-12-10T13:03:46;4.20;99.90
17621;DHT22;8929;51.008;6.804;2022-12-10T13:08:50;3.90;99.90
17621;DHT22;8929;51.008;6.804;2022-12-10T13:11:18;3.90;99.90
17621;DHT22;8929;51.008;6.804;2022-12-10T13:19:36;4.00;99.90
17621;DHT22;8929;51.008;6.804;2022-12-10T13:21:58;4.00;99.90
17621;DHT22;8929;51.008;6.804;2022-12-10T13:29:28;4.30;99.90
17621;DHT22;8929;51.008;6.804;2022-12-10T13:32:01;4.40;99.90
17621;DHT22;8929;51.008;6.804;2022-12-10T13:34:31;4.30;99.90
17621;DHT22;8929;51.008;6.804;2022-12-10T13:50:25;4.60;99.90
17621;DHT22;8929;51.008;6.804;2022-12-10T13:52:59;4.60;99.90
17621;DHT22;8929;51.008;6.804;2022-12-10T13:55:45;4.50;99.90
17621;DHT22;8929;51.008;6.804;2022-12-10T14:00:52;4.40;99.90
17621;DHT22;8929;51.008;6.804;2022-12-10T14:08:32;4.10;99.90
17621;DHT22;8929;51.008;6.804;2022-12-10T14:10:59;4.00;99.90
17621;DHT22;8929;51.008;6.804;2022-12-10T14:13:32;3.90;99.90
17621;DHT22;8929;51.008;6.804;2022-12-10T14:15:59;3.80;99.90
17621;DHT22;8929;51.008;6.804;2022-12-10T14:18:25;3.70;99.90
17621;DHT22;8929;51.008;6.804;2022-12-10T14:20:53;3.70;99.90
17621;DHT22;8929;51.008;6.804;2022-12-10T14:28:38;3.70;99.90
17621;DHT22;8929;51.008;6.804;2022-12-10T14:31:05;3.70;99.90
17621;DHT22;8929;51.008;6.804;2022-12-10T14:33:31;3.60;99.90
17621;DHT22;8929;51.008;6.804;2022-12-10T14:35:57;3.50;99.90
17621;DHT22;8929;51.008;6.804;2022-12-10T14:38:27;3.50;99.90
17621;DHT22;8929;51.008;6.804;2022-12-10T14:40:54;3.50;99.90
17621;DHT22;8929;51.008;6.804;2022-12-10T14:43:21;3.50;99.90
17621;DHT22;8929;51.008;6.804;2022-12-10T14:45:47;3.50;99.90
17621;DHT22;8929;51.008;6.804;2022-12-10T14:48:14;3.60;99.90
17621;DHT22;8929;51.008;6.804;2022-12-10T14:50:41;3.50;99.90
17621;DHT22;8929;51.008;6.804;2022-12-10T14:53:17;3.50;99.90
17621;DHT22;8929;51.008;6.804;2022-12-10T14:55:44;3.60;99.90
17621;DHT22;8929;51.008;6.804;2022-12-10T14:58:13;3.70;99.90
17621;DHT22;8929;51.008;6.804;2022-12-10T15:00:40;3.70;99.90
17621;DHT22;8929;51.008;6.804;2022-12-10T15:03:09;3.70;99.90
17621;DHT22;8929;51.008;6.804;2022-12-10T15:05:35;3.60;99.90
17621;DHT22;8929;51.008;6.804;2022-12-10T15:08:13;3.50;99.90
17621;DHT22;8929;51.008;6.804;2022-12-10T15:10:40;3.50;99.90
17621;DHT22;8929;51.008;6.804;2022-12-10T15:13:06;3.50;99.90
17621;DHT22;8929;51.008;6.804;2022-12-10T15:23:35;3.60;99.90
17621;DHT22;8929;51.008;6.804;2022-12-10T15:28:22;3.40;99.90
17621;DHT22;8929;51.008;6.804;2022-12-10T15:30:48;3.40;99.90
17621;DHT22;8929;51.008;6.804;2022-12-10T15:33:36;3.40;99.90
17621;DHT22;8929;51.008;6.804;2022-12-10T15:36:02;3.30;99.90
17621;DHT22;8929;51.008;6.804;2022-12-10T15:38:28;3.30;99.90
17621;DHT22;8929;51.008;6.804;2022-12-10T15:41:20;3.30;99.90
17621;DHT22;8929;51.008;6.804;2022-12-10T15:43:49;3.30;99.90
17621;DHT22;8929;51.008;6.804;2022-12-10T15:46:16;3.30;99.90
17621;DHT22;8929;51.008;6.804;2022-12-10T15:48:42;3.40;99.90
17621;DHT22;8929;51.008;6.804;2022-12-10T15:51:08;3.40;99.90
17621;DHT22;8929;51.008;6.804;2022-12-10T15:53:37;3.40;99.90
17621;DHT22;8929;51.008;6.804;2022-12-10T15:56:03;3.40;99.90
17621;DHT22;8929;51.008;6.804;2022-12-10T15:58:28;3.40;99.90
17621;DHT22;8929;51.008;6.804;2022-12-10T16:00:54;3.40;99.90
17621;DHT22;8929;51.008;6.804;2022-12-10T16:03:27;3.50;99.90
17621;DHT22;8929;51.008;6.804;2022-12-10T16:05:52;3.50;99.90
17621;DHT22;8929;51.008;6.804;2022-12-10T16:08:19;3.50;99.90
17621;DHT22;8929;51.008;6.804;2022-12-10T16:10:46;3.50;99.90
17621;DHT22;8929;51.008;6.804;2022-12-10T16:13:23;3.50;99.90
17621;DHT22;8929;51.008;6.804;2022-12-10T16:15:51;3.50;99.90
17621;DHT22;8929;51.008;6.804;2022-12-10T16:18:17;3.40;99.90
17621;DHT22;8929;51.008;6.804;2022-12-10T16:20:43;3.50;99.90
17621;DHT22;8929;51.008;6.804;2022-12-10T16:23:09;3.50;99.90
17621;DHT22;8929;51.008;6.804;2022-12-10T16:25:34;3.40;99.90
17621;DHT22;8929;51.008;6.804;2022-12-10T16:28:00;3.40;99.90
17621;DHT22;8929;51.008;6.804;2022-12-10T16:30:34;3.20;99.90
17621;DHT22;8929;51.008;6.804;2022-12-10T16:33:01;3.10;99.90
17621;DHT22;8929;51.008;6.804;2022-12-10T16:35:26;3.20;99.90
17621;DHT22;8929;51.008;6.804;2022-12-10T16:37:52;3.10;99.90
17621;DHT22;8929;51.008;6.804;2022-12-10T16:40:23;3.20;99.90
17621;DHT22;8929;51.008;6.804;2022-12-10T16:42:48;3.20;99.90
17621;DHT22;8929;51.008;6.804;2022-12-10T16:45:16;3.20;99.90
17621;DHT22;8929;51.008;6.804;2022-12-10T16:47:42;3.20;99.90
17621;DHT22;8929;51.008;6.804;2022-12-10T16:50:09;3.20;99.90
17621;DHT22;8929;51.008;6.804;2022-12-10T16:52:34;3.10;99.90
17621;DHT22;8929;51.008;6.804;2022-12-10T16:55:00;3.10;99.90
17621;DHT22;8929;51.008;6.804;2022-12-10T16:57:26;3.00;99.90
17621;DHT22;8929;51.008;6.804;2022-12-10T16:59:51;3.00;99.90
17621;DHT22;8929;51.008;6.804;2022-12-10T17:02:17;3.00;99.90
17621;DHT22;8929;51.008;6.804;2022-12-10T17:04:43;3.00;99.90
17621;DHT22;8929;51.008;6.804;2022-12-10T17:07:09;3.10;99.90
17621;DHT22;8929;51.008;6.804;2022-12-10T17:09:35;3.10;99.90
17621;DHT22;8929;51.008;6.804;2022-12-10T17:12:00;3.20;99.90
17621;DHT22;8929;51.008;6.804;2022-12-10T17:14:30;3.20;99.90
17621;DHT22;8929;51.008;6.804;2022-12-10T17:16:57;3.20;99.90
17621;DHT22;8929;51.008;6.804;2022-12-10T17:19:23;3.00;99.90
17621;DHT22;8929;51.008;6.804;2022-12-10T17:21:49;3.00;99.90
17621;DHT22;8929;51.008;6.804;2022-12-10T17:24:15;3.00;99.90
17621;DHT22;8929;51.008;6.804;2022-12-10T17:26:41;2.90;99.90
17621;DHT22;8929;51.008;6.804;2022-12-10T17:29:19;2.80;99.90
17621;DHT22;8929;51.008;6.804;2022-12-10T17:31:45;2.80;99.90
17621;DHT22;8929;51.008;6.804;2022-12-10T17:34:11;2.80;99.90
17621;DHT22;8929;51.008;6.804;2022-12-10T17:36:37;2.80;99.90
17621;DHT22;8929;51.008;6.804;2022-12-10T17:39:03;2.80;99.90
17621;DHT22;8929;51.008;6.804;2022-12-10T17:41:28;2.80;99.90
17621;DHT22;8929;51.008;6.804;2022-12-10T17:43:53;2.80;99.90
17621;DHT22;8929;51.008;6.804;2022-12-10T17:46:20;2.70;99.90
17621;DHT22;8929;51.008;6.804;2022-12-10T17:48:46;2.70;99.90
17621;DHT22;8929;51.008;6.804;2022-12-10T17:51:12;2.70;99.90
17621;DHT22;8929;51.008;6.804;2022-12-10T17:53:38;2.70;99.90
17621;DHT22;8929;51.008;6.804;2022-12-10T17:56:05;2.80;99.90
17621;DHT22;8929;51.008;6.804;2022-12-10T17:58:33;2.80;99.90
17621;DHT22;8929;51.008;6.804;2022-12-10T18:00:59;2.80;99.90
17621;DHT22;8929;51.008;6.804;2022-12-10T18:03:25;2.80;99.90
17621;DHT22;8929;51.008;6.804;2022-12-10T18:05:51;2.80;99.90